Tyler, TX (75799)

7:11 AM CST on December 19, 2014 (GMT -0600)
Front and Broadway | Change Station
CLOSE
Current Station
Personal Weather Station
Location: Tyler, TX
Elevation: 558 ft
Nearby Weather Stations

Elev 558 ft 32.35 °N, 95.30 °W | Updated 8 minutes ago

Rain
Rain
46.2 °F
Feels Like 43 °F
N
5.8
Wind Variable Wind from South

Today
High -- | Low -- °F
--% Chance of Precip.
Yesterday
High -- | Low -- °F
Precip. -- in
7:17 AM 5:19 PM
Waning Crescent, 8% visible
Pressure 30.12 in
Visibility 5.0 miles
Clouds Overcast 300 ft
Windchill 43 °F
Dew Point 46 °F
Humidity 99%
Rainfall 0.00 in
Snow Depth Not available.
UV 0 out of 12
Pollen .50 out of 12
Air Quality Not available.
Flu Activity Not available.
METAR KTYR 191253Z 02009KT 5SM BR OVC003 09/07 A3013 RMK AO2 RAB36E52 SLP200 P0000 T00890072 $

More Conditions Fewer Conditions

Pressure 30.12 in
Visibility 5.0 miles
Clouds Overcast 300 ft
Windchill 43 °F
Dew Point 46 °F
Humidity 99%
Rainfall 0.00 in
Snow Depth Not available.
UV 0 out of 12
Pollen .50 out of 12
Air Quality Not available.
Flu Activity Not available.
METAR KTYR 191253Z 02009KT 5SM BR OVC003 09/07 A3013 RMK AO2 RAB36E52 SLP200 P0000 T00890072 $

More Conditions Fewer Conditions

Nowcast | as of 5:40 am CST on December 19, 2014

Patchy light rain with embedded showers continue to spread northeast across the region. Convection expected to become heavier and more widespread through daybreak. Rainfall rates of up to a half an inch per hour can be expected across the community of Natchitoches.

×

10-Day Weather Forecast

Almanac

Astronomy

Dec. 19, 2014 Rise Set
Actual Time
Civil Twilight
Nautical Twilight
Astronomical Twilight
Moon
Length of Visible Light
Length of Day
Tomorrow will be .
, % of the Moon is Illuminated

Today's Extremes

State Highs State Lows

Community

WunderPhotos

Upload Photos

1,778,985 photos uploaded!

WunderBlogs® & News

Nearby

Air Quality

  Air Quality AQ Index Pollutant
Not available.

Snow Depth

Station Depth Elevation

Earthquake Activity

City Distance Mag. Time & Date
Minimum magnitude displayed is 2.5.

Coastal Water Temperatures

Place Temperature

Nearby Weather Stations